createdAt,value
2019-03-31T00:00:00.000Z,99101
2019-03-31T00:06:00.000Z,99104
2019-03-31T00:11:00.000Z,99099
2019-03-31T00:16:00.000Z,99091
2019-03-31T00:21:00.000Z,99098
2019-03-31T00:26:00.000Z,99089
2019-03-31T00:31:00.000Z,99085
2019-03-31T00:36:00.000Z,99082
2019-03-31T00:41:00.000Z,99091
2019-03-31T00:46:00.000Z,99087
2019-03-31T00:51:00.000Z,99092
2019-03-31T00:56:00.000Z,99088
2019-03-31T01:01:00.000Z,99091
2019-03-31T01:06:00.000Z,99090
2019-03-31T01:11:00.000Z,99088
2019-03-31T01:16:00.000Z,99082
2019-03-31T01:21:00.000Z,99083
2019-03-31T01:26:00.000Z,99080
2019-03-31T01:31:00.000Z,99079
2019-03-31T01:36:00.000Z,99078
2019-03-31T01:41:00.000Z,99068
2019-03-31T01:46:00.000Z,99068
2019-03-31T01:51:00.000Z,99063
2019-03-31T01:56:00.000Z,99065
2019-03-31T02:01:00.000Z,99058
2019-03-31T02:07:00.000Z,99066
2019-03-31T02:12:00.000Z,99063
2019-03-31T02:17:00.000Z,99066
2019-03-31T02:22:00.000Z,99060
2019-03-31T02:27:00.000Z,99058
2019-03-31T02:32:00.000Z,99058
2019-03-31T02:37:00.000Z,99058
2019-03-31T02:42:00.000Z,99043
2019-03-31T02:47:00.000Z,99038
2019-03-31T02:52:00.000Z,99029
2019-03-31T02:57:00.000Z,99038
2019-03-31T03:02:00.000Z,99039
2019-03-31T03:07:00.000Z,99030
2019-03-31T03:12:00.000Z,99028
2019-03-31T03:17:00.000Z,99033
2019-03-31T03:22:00.000Z,99035
2019-03-31T03:27:00.000Z,99039
2019-03-31T03:32:00.000Z,99041
2019-03-31T03:38:00.000Z,99041
2019-03-31T03:43:00.000Z,99046
2019-03-31T03:48:00.000Z,99047
2019-03-31T03:53:00.000Z,99046
2019-03-31T03:58:00.000Z,99056
2019-03-31T04:03:00.000Z,99036
2019-03-31T04:08:00.000Z,99043
2019-03-31T04:13:00.000Z,99038
2019-03-31T04:18:00.000Z,99045
2019-03-31T04:23:00.000Z,99043
2019-03-31T04:28:00.000Z,99044
2019-03-31T04:33:00.000Z,99044
2019-03-31T04:38:00.000Z,99040
2019-03-31T04:43:00.000Z,99042
2019-03-31T04:48:00.000Z,99050
2019-03-31T04:53:00.000Z,99054
2019-03-31T04:58:00.000Z,99061
2019-03-31T05:03:00.000Z,99058
2019-03-31T05:09:00.000Z,99068
2019-03-31T05:14:00.000Z,99067
2019-03-31T05:19:00.000Z,99064
2019-03-31T05:24:00.000Z,99069
2019-03-31T05:29:00.000Z,99074
2019-03-31T05:34:00.000Z,99079
2019-03-31T05:39:00.000Z,99070
2019-03-31T05:44:00.000Z,99080
2019-03-31T05:49:00.000Z,99078
2019-03-31T05:54:00.000Z,99077
2019-03-31T05:59:00.000Z,99080
2019-03-31T06:04:00.000Z,99076
2019-03-31T06:09:00.000Z,99085
2019-03-31T06:14:00.000Z,99087
2019-03-31T06:19:00.000Z,99088
2019-03-31T06:24:00.000Z,99098
2019-03-31T06:29:00.000Z,99092
2019-03-31T06:34:00.000Z,99103
2019-03-31T06:39:00.000Z,99101
2019-03-31T06:44:00.000Z,99091
2019-03-31T06:49:00.000Z,99096
2019-03-31T06:54:00.000Z,99092
2019-03-31T06:59:00.000Z,99093
2019-03-31T07:04:00.000Z,99109
2019-03-31T07:10:00.000Z,99109
2019-03-31T07:15:00.000Z,99116
2019-03-31T07:20:00.000Z,99121
2019-03-31T07:25:00.000Z,99114
2019-03-31T07:30:00.000Z,99115
2019-03-31T07:35:00.000Z,99122
2019-03-31T07:40:00.000Z,99121
2019-03-31T07:45:00.000Z,99132
2019-03-31T07:50:00.000Z,99116
2019-03-31T07:55:00.000Z,99122
2019-03-31T08:00:00.000Z,99121
2019-03-31T08:05:00.000Z,99117
2019-03-31T08:10:00.000Z,99125
2019-03-31T08:15:00.000Z,99126
2019-03-31T08:20:00.000Z,99127
2019-03-31T08:25:00.000Z,99121
2019-03-31T08:30:00.000Z,99132
2019-03-31T08:35:00.000Z,99128
2019-03-31T08:40:00.000Z,99135
2019-03-31T08:45:00.000Z,99137
2019-03-31T08:50:00.000Z,99119
2019-03-31T08:55:00.000Z,99126
2019-03-31T09:00:00.000Z,99139
2019-03-31T09:05:00.000Z,99132
2019-03-31T09:11:00.000Z,99131
2019-03-31T09:16:00.000Z,99131
2019-03-31T09:21:00.000Z,99132
2019-03-31T09:26:00.000Z,99134
2019-03-31T09:31:00.000Z,99138
2019-03-31T09:36:00.000Z,99137
2019-03-31T09:41:00.000Z,99124
2019-03-31T09:46:00.000Z,99131
2019-03-31T09:51:00.000Z,99128
2019-03-31T09:56:00.000Z,99129
2019-03-31T10:01:00.000Z,99128
2019-03-31T10:06:00.000Z,99128
2019-03-31T10:11:00.000Z,99130
2019-03-31T10:16:00.000Z,99125
2019-03-31T10:21:00.000Z,99119
2019-03-31T10:26:00.000Z,99115
2019-03-31T10:31:00.000Z,99104
2019-03-31T10:36:00.000Z,99103
2019-03-31T10:41:00.000Z,99098
2019-03-31T10:46:00.000Z,99084
2019-03-31T10:51:00.000Z,99090
2019-03-31T10:56:00.000Z,99085
2019-03-31T11:01:00.000Z,99081
2019-03-31T11:06:00.000Z,99075
2019-03-31T11:12:00.000Z,99077
2019-03-31T11:17:00.000Z,99078
2019-03-31T11:22:00.000Z,99071
2019-03-31T11:27:00.000Z,99068
2019-03-31T11:32:00.000Z,99052
2019-03-31T11:37:00.000Z,99062
2019-03-31T11:42:00.000Z,99051
2019-03-31T11:47:00.000Z,99049
2019-03-31T11:52:00.000Z,99055
2019-03-31T11:57:00.000Z,99036
2019-03-31T12:02:00.000Z,99033
2019-03-31T12:07:00.000Z,99030
2019-03-31T12:12:00.000Z,99023
2019-03-31T12:17:00.000Z,99017
2019-03-31T12:22:00.000Z,99013
2019-03-31T12:27:00.000Z,99008
2019-03-31T12:32:00.000Z,99003
2019-03-31T12:37:00.000Z,99005
2019-03-31T12:42:00.000Z,99007
2019-03-31T12:47:00.000Z,98990
2019-03-31T12:52:00.000Z,98986
2019-03-31T12:57:00.000Z,98977
2019-03-31T13:02:00.000Z,98982
2019-03-31T13:07:00.000Z,98974
2019-03-31T13:12:00.000Z,98964
2019-03-31T13:17:00.000Z,98968
2019-03-31T13:22:00.000Z,98960
2019-03-31T13:27:00.000Z,98957
2019-03-31T13:33:00.000Z,98960
2019-03-31T13:38:00.000Z,98955
2019-03-31T13:43:00.000Z,98952
2019-03-31T13:48:00.000Z,98952
2019-03-31T13:53:00.000Z,98934
2019-03-31T13:58:00.000Z,98940
2019-03-31T14:03:00.000Z,98931
2019-03-31T14:08:00.000Z,98940
2019-03-31T14:13:00.000Z,98930
2019-03-31T14:18:00.000Z,98920
2019-03-31T14:23:00.000Z,98920
2019-03-31T14:28:00.000Z,98916
2019-03-31T14:33:00.000Z,98914
2019-03-31T14:38:00.000Z,98915
2019-03-31T14:43:00.000Z,98909
2019-03-31T14:48:00.000Z,98910
2019-03-31T14:53:00.000Z,98897
2019-03-31T14:58:00.000Z,98897
2019-03-31T15:03:00.000Z,98894
2019-03-31T15:08:00.000Z,98896
2019-03-31T15:13:00.000Z,98893
2019-03-31T15:18:00.000Z,98895
2019-03-31T15:23:00.000Z,98896
2019-03-31T15:28:00.000Z,98886
2019-03-31T15:33:00.000Z,98895
2019-03-31T15:38:00.000Z,98895
2019-03-31T15:44:00.000Z,98887
2019-03-31T15:49:00.000Z,98889
2019-03-31T15:54:00.000Z,98887
2019-03-31T15:59:00.000Z,98879
2019-03-31T16:04:00.000Z,98873
2019-03-31T16:09:00.000Z,98882
2019-03-31T16:14:00.000Z,98883
2019-03-31T16:19:00.000Z,98874
2019-03-31T16:24:00.000Z,98876
2019-03-31T16:29:00.000Z,98876
2019-03-31T16:34:00.000Z,98876
2019-03-31T16:39:00.000Z,98873
2019-03-31T16:44:00.000Z,98876
2019-03-31T16:49:00.000Z,98870
2019-03-31T16:54:00.000Z,98880
2019-03-31T16:59:00.000Z,98875
2019-03-31T17:04:00.000Z,98883
2019-03-31T17:09:00.000Z,98875
2019-03-31T17:14:00.000Z,98878
2019-03-31T17:19:00.000Z,98874
2019-03-31T17:24:00.000Z,98881
2019-03-31T17:29:00.000Z,98885
2019-03-31T17:34:00.000Z,98874
2019-03-31T17:39:00.000Z,98884
2019-03-31T17:45:00.000Z,98889
2019-03-31T17:50:00.000Z,98892
2019-03-31T17:55:00.000Z,98898
2019-03-31T18:00:00.000Z,98898
2019-03-31T18:05:00.000Z,98907
2019-03-31T18:10:00.000Z,98910
2019-03-31T18:15:00.000Z,98916
2019-03-31T18:20:00.000Z,98924
2019-03-31T18:25:00.000Z,98933
2019-03-31T18:30:00.000Z,98941
2019-03-31T18:35:00.000Z,98941
2019-03-31T18:40:00.000Z,98947
2019-03-31T18:45:00.000Z,98944
2019-03-31T18:50:00.000Z,98955
2019-03-31T18:55:00.000Z,98949
2019-03-31T19:00:00.000Z,98953
2019-03-31T19:05:00.000Z,98959
2019-03-31T19:10:00.000Z,98957
2019-03-31T19:15:00.000Z,98963
2019-03-31T19:20:00.000Z,98966
2019-03-31T19:25:00.000Z,98971
2019-03-31T19:30:00.000Z,98970
2019-03-31T19:35:00.000Z,98979
2019-03-31T19:40:00.000Z,98982
2019-03-31T19:46:00.000Z,98976
2019-03-31T19:51:00.000Z,98984
2019-03-31T19:56:00.000Z,98986
2019-03-31T20:01:00.000Z,98983
2019-03-31T20:06:00.000Z,98992
2019-03-31T20:11:00.000Z,98999
2019-03-31T20:16:00.000Z,99000
2019-03-31T20:21:00.000Z,99010
2019-03-31T20:26:00.000Z,99010
2019-03-31T20:31:00.000Z,99012
2019-03-31T20:36:00.000Z,99016
2019-03-31T20:41:00.000Z,99026
2019-03-31T20:46:00.000Z,99033
2019-03-31T20:51:00.000Z,99039
2019-03-31T20:56:00.000Z,99037
2019-03-31T21:01:00.000Z,99033
2019-03-31T21:06:00.000Z,99028
2019-03-31T21:11:00.000Z,99044
2019-03-31T21:16:00.000Z,99061
2019-03-31T21:21:00.000Z,99067
2019-03-31T21:26:00.000Z,99066
2019-03-31T21:31:00.000Z,99081
2019-03-31T21:36:00.000Z,99087
2019-03-31T21:41:00.000Z,99092
2019-03-31T21:46:00.000Z,99095
2019-03-31T21:51:00.000Z,99096
2019-03-31T21:56:00.000Z,99095
2019-03-31T22:01:00.000Z,99112
2019-03-31T22:06:00.000Z,99104
2019-03-31T22:11:00.000Z,99112
2019-03-31T22:16:00.000Z,99106
2019-03-31T22:21:00.000Z,99105
2019-03-31T22:26:00.000Z,99114
2019-03-31T22:31:00.000Z,99111
2019-03-31T22:36:00.000Z,99125
2019-03-31T22:41:00.000Z,99125
2019-03-31T22:46:00.000Z,99115
2019-03-31T22:51:00.000Z,99117
2019-03-31T22:56:00.000Z,99118
2019-03-31T23:01:00.000Z,99120
2019-03-31T23:06:00.000Z,99119
2019-03-31T23:11:00.000Z,99119
2019-03-31T23:16:00.000Z,99126
2019-03-31T23:21:00.000Z,99134
2019-03-31T23:26:00.000Z,99128
2019-03-31T23:31:00.000Z,99132
2019-03-31T23:36:00.000Z,99142
2019-03-31T23:41:00.000Z,99131
2019-03-31T23:46:00.000Z,99136
2019-03-31T23:51:00.000Z,99140
2019-03-31T23:56:00.000Z,99145
